createdAt,value
2019-01-11T00:00:44.627Z,0.76
2019-01-11T00:01:54.741Z,0.79
2019-01-11T00:03:04.849Z,0.81
2019-01-11T00:04:14.971Z,0.82
2019-01-11T00:05:25.111Z,0.81
2019-01-11T00:06:35.216Z,0.85
2019-01-11T00:07:45.375Z,0.82
2019-01-11T00:08:55.480Z,0.85
2019-01-11T00:10:05.365Z,0.81
2019-01-11T00:11:15.502Z,0.88
2019-01-11T00:12:25.629Z,0.82
2019-01-11T00:13:35.742Z,0.86
2019-01-11T00:14:45.852Z,0.86
2019-01-11T00:15:55.978Z,0.9
2019-01-11T00:17:06.087Z,0.86
2019-01-11T00:18:17.186Z,0.93
2019-01-11T00:19:27.308Z,0.88
2019-01-11T00:20:37.428Z,0.85
2019-01-11T00:21:47.539Z,0.9
2019-01-11T00:22:57.658Z,0.86
2019-01-11T00:24:07.774Z,0.86
2019-01-11T00:25:17.873Z,0.9
2019-01-11T00:26:28.017Z,0.93
2019-01-11T00:27:38.127Z,0.97
2019-01-11T00:28:49.160Z,0.88
2019-01-11T00:29:59.281Z,1.02
2019-01-11T00:31:09.027Z,1.03
2019-01-11T00:32:19.149Z,0.99
2019-01-11T00:33:29.255Z,0.97
2019-01-11T00:34:39.364Z,0.93
2019-01-11T00:35:49.510Z,0.93
2019-01-11T00:36:59.641Z,0.9
2019-01-11T00:38:09.490Z,0.82
2019-01-11T00:39:19.608Z,0.81
2019-01-11T00:40:29.763Z,0.85
2019-01-11T00:41:39.875Z,0.84
2019-01-11T00:42:49.993Z,0.79
2019-01-11T00:44:00.208Z,0.74
2019-01-11T00:45:10.307Z,0.66
2019-01-11T00:46:20.427Z,0.75
2019-01-11T00:47:30.278Z,0.64
2019-01-11T00:48:40.411Z,0.71
2019-01-11T00:49:50.538Z,0.74
2019-01-11T00:51:00.660Z,0.75
2019-01-11T00:52:10.777Z,0.71
2019-01-11T00:53:20.895Z,0.74
2019-01-11T00:54:31.008Z,0.74
2019-01-11T00:55:41.141Z,0.75
2019-01-11T00:56:51.279Z,0.81
2019-01-11T00:58:01.389Z,0.82
2019-01-11T00:59:11.698Z,0.68
2019-01-11T01:00:21.815Z,0.71
2019-01-11T01:01:31.913Z,0.71
2019-01-11T01:02:42.029Z,0.76
2019-01-11T01:03:52.127Z,0.81
2019-01-11T01:05:02.247Z,0.88
2019-01-11T01:06:12.356Z,0.82
2019-01-11T01:07:22.474Z,0.85
2019-01-11T01:08:35.526Z,0.84
2019-01-11T01:09:46.635Z,0.88
2019-01-11T01:10:56.764Z,0.79
2019-01-11T01:12:06.898Z,0.85
2019-01-11T01:13:16.999Z,0.84
2019-01-11T01:14:27.130Z,0.85
2019-01-11T01:15:37.234Z,0.84
2019-01-11T01:16:47.340Z,0.84
2019-01-11T01:17:57.467Z,0.81
2019-01-11T01:19:07.585Z,0.81
2019-01-11T01:20:17.707Z,0.85
2019-01-11T01:21:27.815Z,0.82
2019-01-11T01:22:37.927Z,0.84
2019-01-11T01:23:48.028Z,0.84
2019-01-11T01:24:58.134Z,0.78
2019-01-11T01:26:08.236Z,0.84
2019-01-11T01:27:18.449Z,0.85
2019-01-11T01:28:28.203Z,0.82
2019-01-11T01:29:38.300Z,0.79
2019-01-11T01:30:48.404Z,0.81
2019-01-11T01:31:58.506Z,0.76
2019-01-11T01:33:08.605Z,0.71
2019-01-11T01:34:18.715Z,0.74
2019-01-11T01:35:28.832Z,0.76
2019-01-11T01:36:38.949Z,0.72
2019-01-11T01:37:49.067Z,0.67
2019-01-11T01:38:58.827Z,0.76
2019-01-11T01:40:08.943Z,0.76
2019-01-11T01:41:19.036Z,0.76
2019-01-11T01:42:29.171Z,0.72
2019-01-11T01:43:39.277Z,0.71
2019-01-11T01:44:49.367Z,0.74
2019-01-11T01:45:59.518Z,0.66
2019-01-11T01:47:09.603Z,0.63
2019-01-11T01:48:19.701Z,0.71
2019-01-11T01:49:31.621Z,0.71
2019-01-11T01:50:41.758Z,0.68
2019-01-11T01:51:51.898Z,0.74
2019-01-11T01:53:01.992Z,0.67
2019-01-11T01:54:12.091Z,0.71
2019-01-11T01:55:22.207Z,0.76
2019-01-11T01:56:32.339Z,0.66
2019-01-11T01:57:42.481Z,0.63
2019-01-11T01:58:52.575Z,0.74
2019-01-11T02:00:02.737Z,0.64
2019-01-11T02:01:12.832Z,0.67
2019-01-11T02:02:22.935Z,0.67
2019-01-11T02:03:33.025Z,0.66
2019-01-11T02:04:43.128Z,0.56
2019-01-11T02:05:53.245Z,0.61
2019-01-11T02:07:03.352Z,0.63
2019-01-11T02:08:13.473Z,0.61
2019-01-11T02:09:23.577Z,0.53
2019-01-11T02:10:33.696Z,0.56
2019-01-11T02:11:43.797Z,0.53
2019-01-11T02:12:53.562Z,0.5
2019-01-11T02:14:03.651Z,0.45
2019-01-11T02:15:13.747Z,0.46
2019-01-11T02:16:23.844Z,0.54
2019-01-11T02:17:33.934Z,0.42
2019-01-11T02:18:43.796Z,0.43
2019-01-11T02:19:53.904Z,0.5
2019-01-11T02:21:04.012Z,0.46
2019-01-11T02:22:14.113Z,0.38
2019-01-11T02:23:24.207Z,0.4
2019-01-11T02:24:34.318Z,0.36
2019-01-11T02:25:48.718Z,0.27
2019-01-11T02:26:58.834Z,0.27
2019-01-11T02:28:08.932Z,0.36
2019-01-11T02:29:18.813Z,0.25
2019-01-11T02:30:28.914Z,0.21
2019-01-11T02:31:39.005Z,0.24
2019-01-11T02:32:55.413Z,0.28
2019-01-11T02:34:05.550Z,0.27
2019-01-11T02:35:15.661Z,0.31
2019-01-11T02:36:25.878Z,0.27
2019-01-11T02:37:36.103Z,0.3
2019-01-11T02:38:46.231Z,0.39
2019-01-11T02:39:56.351Z,0.24
2019-01-11T02:41:06.478Z,0.25
2019-01-11T02:42:16.579Z,0.22
2019-01-11T02:43:26.704Z,0.2
2019-01-11T02:44:37.584Z,0.08
2019-01-11T02:45:47.679Z,0.05
2019-01-11T02:46:57.432Z,0.06
2019-01-11T02:48:07.554Z,0.05
2019-01-11T02:49:17.659Z,0.02
2019-01-11T02:50:27.782Z,0.02
2019-01-11T02:51:37.886Z,0.02
2019-01-11T02:52:47.995Z,0.03
2019-01-11T02:53:58.163Z,-0.02
2019-01-11T02:55:08.279Z,-0.01
2019-01-11T02:56:18.131Z,0.01
2019-01-11T02:57:28.227Z,-0.04
2019-01-11T02:58:38.325Z,0.08
2019-01-11T02:59:48.437Z,0.08
2019-01-11T03:00:58.537Z,0.03
2019-01-11T03:02:08.661Z,0.11
2019-01-11T03:03:18.773Z,0.21
2019-01-11T03:04:28.653Z,0.16
2019-01-11T03:05:38.745Z,0.22
2019-01-11T03:06:48.850Z,0.2
2019-01-11T03:07:58.963Z,0.14
2019-01-11T03:09:09.072Z,0.2
2019-01-11T03:10:19.194Z,0.21
2019-01-11T03:11:29.040Z,0.2
2019-01-11T03:12:39.148Z,0.11
2019-01-11T03:13:49.235Z,0.17
2019-01-11T03:14:59.344Z,0.14
2019-01-11T03:16:09.466Z,0.17
2019-01-11T03:17:19.566Z,0.09
2019-01-11T03:18:29.871Z,0.05
2019-01-11T03:19:47.463Z,0.11
2019-01-11T03:20:57.811Z,0.14
2019-01-11T03:22:08.000Z,0.03
2019-01-11T03:23:18.101Z,0.08
2019-01-11T03:24:28.210Z,0.05
2019-01-11T03:25:38.322Z,0.06
2019-01-11T03:26:48.422Z,0.02
2019-01-11T03:27:58.526Z,0.06
2019-01-11T03:29:08.632Z,0.05
2019-01-11T03:30:18.759Z,0.08
2019-01-11T03:31:28.903Z,0.08
2019-01-11T03:32:38.759Z,0.05
2019-01-11T03:33:49.004Z,-0.01
2019-01-11T03:34:59.129Z,-0.04
2019-01-11T03:36:09.983Z,-0.02
2019-01-11T03:37:20.102Z,0.02
2019-01-11T03:38:30.208Z,-0.01
2019-01-11T03:39:40.377Z,0.05
2019-01-11T03:40:50.470Z,0.01
2019-01-11T03:42:00.585Z,-0.06
2019-01-11T03:43:10.696Z,-0.04
2019-01-11T03:44:20.791Z,-0.02
2019-01-11T03:45:32.521Z,-0.06
2019-01-11T03:46:42.729Z,-0.07
2019-01-11T03:47:52.833Z,-0.17
2019-01-11T03:49:02.944Z,-0.06
2019-01-11T03:50:13.068Z,-0.02
2019-01-11T03:51:23.184Z,-0.04
2019-01-11T03:52:33.284Z,-0.06
2019-01-11T03:53:43.384Z,-0.04
2019-01-11T03:54:53.513Z,-0.06
2019-01-11T03:56:03.621Z,-0.07
2019-01-11T03:57:13.719Z,-0.2
2019-01-11T03:58:23.573Z,-0.19
2019-01-11T03:59:33.665Z,-0.12
2019-01-11T04:00:43.821Z,-0.1
2019-01-11T04:01:53.918Z,-0.15
2019-01-11T04:03:04.039Z,-0.1
2019-01-11T04:04:14.156Z,-0.07
2019-01-11T04:05:24.308Z,-0.12
2019-01-11T04:06:34.410Z,-0.07
2019-01-11T04:07:44.262Z,-0.02
2019-01-11T04:08:54.380Z,-0.09
2019-01-11T04:10:04.502Z,-0.12
2019-01-11T04:11:14.604Z,-0.09
2019-01-11T04:12:24.727Z,-0.13
2019-01-11T04:13:35.594Z,-0.17
2019-01-11T04:14:45.687Z,-0.19
2019-01-11T04:15:56.651Z,-0.27
2019-01-11T04:17:06.821Z,-0.17
2019-01-11T04:18:16.914Z,-0.27
2019-01-11T04:19:27.016Z,-0.31
2019-01-11T04:20:37.139Z,-0.28
2019-01-11T04:21:47.270Z,-0.25
2019-01-11T04:22:57.366Z,-0.22
2019-01-11T04:24:07.480Z,-0.22
2019-01-11T04:25:17.571Z,-0.28
2019-01-11T04:26:27.682Z,-0.3
2019-01-11T04:27:37.799Z,-0.22
2019-01-11T04:28:47.642Z,-0.19
2019-01-11T04:29:57.491Z,-0.15
2019-01-11T04:31:07.624Z,-0.27
2019-01-11T04:32:17.738Z,-0.27
2019-01-11T04:33:27.842Z,-0.23
2019-01-11T04:34:37.938Z,-0.28
2019-01-11T04:35:47.782Z,-0.31
2019-01-11T04:36:58.109Z,-0.35
2019-01-11T04:38:08.214Z,-0.28
2019-01-11T04:39:18.340Z,-0.3
2019-01-11T04:40:34.051Z,-0.3
2019-01-11T04:41:44.397Z,-0.3
2019-01-11T04:42:54.506Z,-0.37
2019-01-11T04:44:04.607Z,-0.38
2019-01-11T04:45:14.725Z,-0.3
2019-01-11T04:46:24.842Z,-0.38
2019-01-11T04:47:34.952Z,-0.34
2019-01-11T04:48:44.802Z,-0.35
2019-01-11T04:49:54.893Z,-0.38
2019-01-11T04:51:05.004Z,-0.4
2019-01-11T04:52:15.108Z,-0.48
2019-01-11T04:53:25.309Z,-0.49
2019-01-11T04:54:35.145Z,-0.41
2019-01-11T04:55:45.254Z,-0.35
2019-01-11T04:56:55.358Z,-0.35
2019-01-11T04:58:06.707Z,-0.34
2019-01-11T04:59:16.745Z,-0.3
2019-01-11T05:00:26.586Z,-0.23
2019-01-11T05:01:36.733Z,-0.22
2019-01-11T05:02:46.829Z,-0.27
2019-01-11T05:03:56.942Z,-0.19
2019-01-11T05:05:07.054Z,-0.25
2019-01-11T05:06:17.180Z,-0.3
2019-01-11T05:07:27.296Z,-0.28
2019-01-11T05:08:37.390Z,-0.28
2019-01-11T05:09:47.502Z,-0.2
2019-01-11T05:10:57.671Z,-0.22
2019-01-11T05:12:07.799Z,-0.23
2019-01-11T05:13:17.915Z,-0.23
2019-01-11T05:14:28.029Z,-0.13
2019-01-11T05:15:38.152Z,-0.15
2019-01-11T05:16:48.258Z,-0.22
2019-01-11T05:17:58.364Z,-0.2
2019-01-11T05:19:08.470Z,-0.22
2019-01-11T05:20:21.801Z,-0.2
2019-01-11T05:21:31.901Z,-0.22
2019-01-11T05:22:42.000Z,-0.28
2019-01-11T05:23:52.113Z,-0.2
2019-01-11T05:25:02.249Z,-0.27
2019-01-11T05:26:12.383Z,-0.28
2019-01-11T05:27:22.255Z,-0.23
2019-01-11T05:28:32.108Z,-0.3
2019-01-11T05:29:42.217Z,-0.33
2019-01-11T05:30:52.333Z,-0.22
2019-01-11T05:32:02.453Z,-0.3
2019-01-11T05:33:12.211Z,-0.41
2019-01-11T05:34:22.309Z,-0.45
2019-01-11T05:35:32.419Z,-0.43
2019-01-11T05:36:42.516Z,-0.46
2019-01-11T05:37:52.264Z,-0.49
2019-01-11T05:39:02.120Z,-0.43
2019-01-11T05:40:13.199Z,-0.34
2019-01-11T05:41:23.323Z,-0.41
2019-01-11T05:42:33.620Z,-0.46
2019-01-11T05:43:43.737Z,-0.43
2019-01-11T05:44:53.852Z,-0.37
2019-01-11T05:46:03.948Z,-0.28
2019-01-11T05:47:14.097Z,-0.37
2019-01-11T05:48:24.199Z,-0.38
2019-01-11T05:49:34.306Z,-0.38
2019-01-11T05:50:44.423Z,-0.31
2019-01-11T05:51:54.510Z,-0.33
2019-01-11T05:53:04.655Z,-0.33
2019-01-11T05:54:14.742Z,-0.3
2019-01-11T05:55:24.864Z,-0.35
2019-01-11T05:56:34.808Z,-0.25
2019-01-11T05:57:44.922Z,-0.2
2019-01-11T05:58:55.026Z,-0.23
2019-01-11T06:00:05.129Z,-0.15
2019-01-11T06:01:15.239Z,-0.1
2019-01-11T06:02:25.345Z,-0.07
2019-01-11T06:03:35.455Z,-0.16
2019-01-11T06:04:45.583Z,-0.1
2019-01-11T06:05:55.747Z,-0.19
2019-01-11T06:07:05.648Z,-0.17
2019-01-11T06:08:15.778Z,-0.16
2019-01-11T06:09:25.883Z,-0.12
2019-01-11T06:10:35.984Z,-0.15
2019-01-11T06:11:46.109Z,-0.07
2019-01-11T06:12:55.961Z,-0.06
2019-01-11T06:14:07.043Z,-0.17
2019-01-11T06:15:17.162Z,-0.15
2019-01-11T06:16:27.272Z,-0.15
2019-01-11T06:17:37.421Z,-0.12
2019-01-11T06:18:47.635Z,-0.04
2019-01-11T06:19:57.756Z,-0.13
2019-01-11T06:21:07.890Z,-0.22
2019-01-11T06:22:17.992Z,-0.09
2019-01-11T06:23:28.120Z,-0.19
2019-01-11T06:24:38.228Z,-0.12
2019-01-11T06:25:48.336Z,-0.16
2019-01-11T06:26:58.472Z,-0.15
2019-01-11T06:28:08.799Z,-0.13
2019-01-11T06:29:18.911Z,-0.09
2019-01-11T06:30:29.018Z,0.02
2019-01-11T06:31:39.136Z,0.05
2019-01-11T06:32:49.238Z,-0.01
2019-01-11T06:33:59.338Z,0.02
2019-01-11T06:35:10.499Z,0.03
2019-01-11T06:36:20.612Z,0.06
2019-01-11T06:37:30.725Z,0.05
2019-01-11T06:38:40.829Z,0.08
2019-01-11T06:39:50.935Z,0.06
2019-01-11T06:41:01.051Z,0.08
2019-01-11T06:42:11.163Z,0.16
2019-01-11T06:43:21.262Z,0.08
2019-01-11T06:44:31.381Z,0.22
2019-01-11T06:45:46.737Z,0.22
2019-01-11T06:46:56.822Z,0.24
2019-01-11T06:48:06.980Z,0.22
2019-01-11T06:49:17.117Z,0.22
2019-01-11T06:50:27.222Z,0.28
2019-01-11T06:51:41.628Z,0.31
2019-01-11T06:52:51.943Z,0.25
2019-01-11T06:54:02.894Z,0.36
2019-01-11T06:55:12.749Z,0.25
2019-01-11T06:56:22.851Z,0.27
2019-01-11T06:57:32.961Z,0.35
2019-01-11T06:58:43.074Z,0.33
2019-01-11T06:59:53.180Z,0.3
2019-01-11T07:01:03.273Z,0.33
2019-01-11T07:02:13.378Z,0.33
2019-01-11T07:03:24.255Z,0.35
2019-01-11T07:04:34.369Z,0.45
2019-01-11T07:05:44.545Z,0.35
2019-01-11T07:06:54.661Z,0.45
2019-01-11T07:08:04.785Z,0.38
2019-01-11T07:09:14.900Z,0.54
2019-01-11T07:10:25.006Z,0.5
2019-01-11T07:11:35.109Z,0.49
2019-01-11T07:12:45.228Z,0.58
2019-01-11T07:13:55.349Z,0.58
2019-01-11T07:15:05.451Z,0.58
2019-01-11T07:16:15.594Z,0.56
2019-01-11T07:17:25.702Z,0.56
2019-01-11T07:18:35.831Z,0.6
2019-01-11T07:19:46.152Z,0.58
2019-01-11T07:20:56.282Z,0.58
2019-01-11T07:22:06.405Z,0.63
2019-01-11T07:23:16.516Z,0.68
2019-01-11T07:24:26.647Z,0.6
2019-01-11T07:25:36.495Z,0.71
2019-01-11T07:26:46.623Z,0.76
2019-01-11T07:27:56.724Z,0.66
2019-01-11T07:29:06.840Z,0.67
2019-01-11T07:30:16.582Z,0.63
2019-01-11T07:31:26.692Z,0.72
2019-01-11T07:32:36.552Z,0.72
2019-01-11T07:33:46.648Z,0.64
2019-01-11T07:34:56.743Z,0.6
2019-01-11T07:36:06.842Z,0.72
2019-01-11T07:37:16.947Z,0.67
2019-01-11T07:38:27.080Z,0.67
2019-01-11T07:39:37.175Z,0.74
2019-01-11T07:40:47.286Z,0.74
2019-01-11T07:41:57.390Z,0.78
2019-01-11T07:43:07.509Z,0.82
2019-01-11T07:44:17.366Z,0.82
2019-01-11T07:45:27.489Z,0.84
2019-01-11T07:46:37.603Z,0.85
2019-01-11T07:47:47.705Z,0.9
2019-01-11T07:48:57.817Z,0.85
2019-01-11T07:50:07.663Z,0.94
2019-01-11T07:51:17.815Z,0.9
2019-01-11T07:52:27.657Z,0.94
2019-01-11T07:53:37.792Z,0.9
2019-01-11T07:54:47.903Z,0.94
2019-01-11T07:55:58.084Z,0.88
2019-01-11T07:57:08.187Z,0.99
2019-01-11T07:58:18.309Z,1.03
2019-01-11T07:59:28.418Z,0.97
2019-01-11T08:00:38.521Z,0.99
2019-01-11T08:01:48.627Z,1.03
2019-01-11T08:02:58.727Z,0.93
2019-01-11T08:04:08.579Z,1.04
2019-01-11T08:05:18.855Z,0.99
2019-01-11T08:06:28.976Z,0.99
2019-01-11T08:07:39.083Z,1.02
2019-01-11T08:08:49.208Z,1.03
2019-01-11T08:09:59.323Z,1
2019-01-11T08:11:09.460Z,1.04
2019-01-11T08:12:19.588Z,1.08
2019-01-11T08:13:29.705Z,1.02
2019-01-11T08:14:39.817Z,1.14
2019-01-11T08:15:49.936Z,1.14
2019-01-11T08:17:00.043Z,1.15
2019-01-11T08:18:10.173Z,1.18
2019-01-11T08:19:20.311Z,1.15
2019-01-11T08:20:30.432Z,1.1
2019-01-11T08:21:40.547Z,1.08
2019-01-11T08:22:50.681Z,1.18
2019-01-11T08:24:00.547Z,1.17
2019-01-11T08:25:10.686Z,1.21
2019-01-11T08:26:20.979Z,1.22
2019-01-11T08:27:31.085Z,1.22
2019-01-11T08:28:41.213Z,1.17
2019-01-11T08:29:51.560Z,1.2
2019-01-11T08:31:01.668Z,1.3
2019-01-11T08:32:11.777Z,1.2
2019-01-11T08:33:23.629Z,1.21
2019-01-11T08:34:33.835Z,1.25
2019-01-11T08:35:43.971Z,1.29
2019-01-11T08:36:54.091Z,1.21
2019-01-11T08:38:04.221Z,1.28
2019-01-11T08:39:14.088Z,1.28
2019-01-11T08:40:24.217Z,1.3
2019-01-11T08:41:34.350Z,1.35
2019-01-11T08:42:44.487Z,1.3
2019-01-11T08:43:54.622Z,1.32
2019-01-11T08:45:04.736Z,1.4
2019-01-11T08:46:14.869Z,1.38
2019-01-11T08:47:24.988Z,1.4
2019-01-11T08:48:35.360Z,1.54
2019-01-11T08:49:45.483Z,1.51
2019-01-11T08:50:55.606Z,1.48
2019-01-11T08:52:10.555Z,1.48
2019-01-11T08:53:20.662Z,1.39
2019-01-11T08:54:30.529Z,1.36
2019-01-11T08:55:40.660Z,1.42
2019-01-11T08:56:50.790Z,1.5
2019-01-11T08:58:00.947Z,1.4
2019-01-11T08:59:11.043Z,1.47
2019-01-11T09:00:21.180Z,1.46
2019-01-11T09:01:31.276Z,1.4
2019-01-11T09:02:41.413Z,1.42
2019-01-11T09:03:51.544Z,1.5
2019-01-11T09:05:01.660Z,1.47
2019-01-11T09:06:11.780Z,1.47
2019-01-11T09:07:21.908Z,1.57
2019-01-11T09:08:32.030Z,1.46
2019-01-11T09:09:41.901Z,1.47
2019-01-11T09:10:52.076Z,1.58
2019-01-11T09:12:02.191Z,1.53
2019-01-11T09:13:12.313Z,1.6
2019-01-11T09:14:22.085Z,1.54
2019-01-11T09:15:32.198Z,1.67
2019-01-11T09:16:42.459Z,1.55
2019-01-11T09:17:52.801Z,1.53
2019-01-11T09:19:02.926Z,1.53
2019-01-11T09:20:13.067Z,1.64
2019-01-11T09:21:23.177Z,1.54
2019-01-11T09:22:33.290Z,1.55
2019-01-11T09:23:43.415Z,1.51
2019-01-11T09:24:53.509Z,1.64
2019-01-11T09:26:03.637Z,1.51
2019-01-11T09:27:13.734Z,1.54
2019-01-11T09:28:23.860Z,1.72
2019-01-11T09:29:34.067Z,1.72
2019-01-11T09:30:44.234Z,1.74
2019-01-11T09:31:54.356Z,1.7
2019-01-11T09:33:05.392Z,1.69
2019-01-11T09:34:15.506Z,1.73
2019-01-11T09:35:25.655Z,1.72
2019-01-11T09:36:35.763Z,1.77
2019-01-11T09:37:47.283Z,1.73
2019-01-11T09:38:57.402Z,1.74
2019-01-11T09:40:07.518Z,1.76
2019-01-11T09:41:17.654Z,1.79
2019-01-11T09:42:27.536Z,1.84
2019-01-11T09:43:37.645Z,1.8
2019-01-11T09:44:47.771Z,1.8
2019-01-11T09:45:57.889Z,1.91
2019-01-11T09:47:08.034Z,1.88
2019-01-11T09:48:18.145Z,1.85
2019-01-11T09:49:28.277Z,1.94
2019-01-11T09:50:38.390Z,1.91
2019-01-11T09:51:48.539Z,1.97
2019-01-11T09:52:58.659Z,1.95
2019-01-11T09:54:08.792Z,2.01
2019-01-11T09:55:18.931Z,2.01
2019-01-11T09:56:29.077Z,2
2019-01-11T09:57:39.209Z,1.98
2019-01-11T09:58:49.072Z,2.01
2019-01-11T09:59:59.215Z,1.98
2019-01-11T10:01:09.317Z,2.03
2019-01-11T10:02:19.075Z,1.97
2019-01-11T10:03:29.190Z,1.97
2019-01-11T10:04:39.304Z,1.98
2019-01-11T10:05:49.186Z,2.06
2019-01-11T10:06:59.407Z,2.06
2019-01-11T10:08:09.542Z,1.98
2019-01-11T10:09:19.684Z,2.03
2019-01-11T10:10:29.819Z,2.03
2019-01-11T10:11:39.936Z,1.98
2019-01-11T10:12:50.052Z,2.05
2019-01-11T10:14:00.188Z,2.03
2019-01-11T10:15:10.291Z,2.05
2019-01-11T10:16:20.448Z,2.03
2019-01-11T10:17:31.300Z,2.05
2019-01-11T10:18:41.425Z,2.06
2019-01-11T10:19:52.570Z,2.06
2019-01-11T10:21:02.708Z,2.08
2019-01-11T10:22:12.843Z,2.09
2019-01-11T10:23:22.998Z,2.12
2019-01-11T10:24:32.762Z,2.13
2019-01-11T10:25:42.900Z,2.06
2019-01-11T10:26:53.024Z,2.16
2019-01-11T10:28:04.442Z,2.18
2019-01-11T10:29:14.210Z,2.21
2019-01-11T10:30:24.349Z,2.19
2019-01-11T10:31:34.498Z,2.21
2019-01-11T10:32:44.644Z,2.23
2019-01-11T10:33:54.770Z,2.23
2019-01-11T10:35:04.932Z,2.19
2019-01-11T10:36:15.093Z,2.19
2019-01-11T10:37:25.234Z,2.26
2019-01-11T10:38:35.351Z,2.31
2019-01-11T10:39:45.499Z,2.23
2019-01-11T10:40:55.698Z,2.28
2019-01-11T10:42:05.605Z,2.3
2019-01-11T10:43:15.727Z,2.21
2019-01-11T10:44:25.834Z,2.28
2019-01-11T10:45:35.949Z,2.27
2019-01-11T10:46:51.577Z,2.3
2019-01-11T10:48:01.697Z,2.28
2019-01-11T10:49:11.830Z,2.26
2019-01-11T10:50:21.971Z,2.26
2019-01-11T10:51:33.571Z,2.44
2019-01-11T10:52:43.719Z,2.33
2019-01-11T10:53:53.838Z,2.39
2019-01-11T10:55:03.949Z,2.41
2019-01-11T10:56:14.061Z,2.33
2019-01-11T10:57:24.190Z,2.42
2019-01-11T10:58:34.322Z,2.41
2019-01-11T10:59:44.459Z,2.39
2019-01-11T11:00:54.593Z,2.39
2019-01-11T11:02:04.721Z,2.39
2019-01-11T11:03:14.885Z,2.34
2019-01-11T11:04:25.028Z,2.31
2019-01-11T11:05:34.926Z,2.28
2019-01-11T11:06:45.064Z,2.37
2019-01-11T11:07:55.192Z,2.28
2019-01-11T11:09:05.348Z,2.37
2019-01-11T11:10:15.490Z,2.34
2019-01-11T11:11:25.626Z,2.27
2019-01-11T11:12:35.780Z,2.42
2019-01-11T11:13:45.922Z,2.42
2019-01-11T11:14:56.048Z,2.28
2019-01-11T11:16:06.183Z,2.34
2019-01-11T11:17:16.288Z,2.44
2019-01-11T11:18:26.054Z,2.31
2019-01-11T11:19:36.204Z,2.31
2019-01-11T11:20:46.336Z,2.36
2019-01-11T11:21:56.685Z,2.36
2019-01-11T11:23:06.820Z,2.37
2019-01-11T11:24:16.929Z,2.37
2019-01-11T11:25:27.063Z,2.34
2019-01-11T11:26:37.968Z,2.44
2019-01-11T11:27:48.071Z,2.36
2019-01-11T11:28:58.197Z,2.45
2019-01-11T11:30:08.353Z,2.44
2019-01-11T11:31:18.475Z,2.39
2019-01-11T11:32:28.622Z,2.45
2019-01-11T11:33:38.736Z,2.33
2019-01-11T11:34:48.869Z,2.33
2019-01-11T11:35:58.999Z,2.36
2019-01-11T11:37:09.126Z,2.39
2019-01-11T11:38:23.161Z,2.33
2019-01-11T11:39:33.267Z,2.46
2019-01-11T11:40:43.401Z,2.28
2019-01-11T11:41:53.504Z,2.42
2019-01-11T11:43:03.623Z,2.39
2019-01-11T11:44:13.750Z,2.39
2019-01-11T11:45:23.980Z,2.44
2019-01-11T11:46:34.152Z,2.41
2019-01-11T11:47:44.393Z,2.46
2019-01-11T11:48:54.526Z,2.44
2019-01-11T11:50:04.659Z,2.52
2019-01-11T11:51:14.798Z,2.44
2019-01-11T11:52:24.904Z,2.49
2019-01-11T11:53:35.014Z,2.48
2019-01-11T11:54:45.119Z,2.44
2019-01-11T11:55:55.220Z,2.48
2019-01-11T11:57:05.338Z,2.46
2019-01-11T11:58:15.483Z,2.51
2019-01-11T11:59:25.597Z,2.51
2019-01-11T12:00:35.715Z,2.52
2019-01-11T12:01:52.403Z,2.49
2019-01-11T12:03:02.654Z,2.41
2019-01-11T12:04:12.778Z,2.41
2019-01-11T12:05:22.896Z,2.41
2019-01-11T12:06:33.030Z,2.49
2019-01-11T12:07:43.202Z,2.41
2019-01-11T12:08:53.353Z,2.52
2019-01-11T12:10:03.772Z,2.46
2019-01-11T12:11:13.888Z,2.59
2019-01-11T12:12:24.008Z,2.59
2019-01-11T12:13:37.086Z,2.51
2019-01-11T12:14:47.206Z,2.55
2019-01-11T12:15:57.323Z,2.67
2019-01-11T12:17:07.458Z,2.56
2019-01-11T12:18:17.564Z,2.64
2019-01-11T12:19:27.681Z,2.66
2019-01-11T12:20:37.846Z,2.64
2019-01-11T12:21:52.628Z,2.71
2019-01-11T12:23:07.042Z,2.74
2019-01-11T12:24:16.923Z,2.71
2019-01-11T12:25:27.052Z,2.7
2019-01-11T12:26:37.350Z,2.74
2019-01-11T12:27:47.563Z,2.7
2019-01-11T12:28:57.787Z,2.69
2019-01-11T12:30:07.978Z,2.71
2019-01-11T12:31:18.127Z,2.71
2019-01-11T12:32:28.243Z,2.74
2019-01-11T12:33:38.366Z,2.74
2019-01-11T12:34:48.488Z,2.69
2019-01-11T12:35:58.358Z,2.78
2019-01-11T12:37:08.479Z,2.81
2019-01-11T12:38:18.898Z,2.77
2019-01-11T12:39:29.042Z,2.79
2019-01-11T12:40:39.166Z,2.85
2019-01-11T12:41:49.343Z,2.84
2019-01-11T12:42:59.470Z,2.84
2019-01-11T12:44:09.604Z,2.87
2019-01-11T12:45:19.732Z,2.96
2019-01-11T12:46:29.881Z,2.85
2019-01-11T12:47:40.014Z,2.96
2019-01-11T12:48:50.138Z,2.99
2019-01-11T12:50:00.336Z,2.97
2019-01-11T12:51:10.483Z,2.97
2019-01-11T12:52:20.616Z,3
2019-01-11T12:53:30.733Z,3.07
2019-01-11T12:54:40.917Z,3.1
2019-01-11T12:55:51.041Z,3.1
2019-01-11T12:57:01.173Z,3.07
2019-01-11T12:58:11.290Z,3.07
2019-01-11T12:59:21.446Z,3.15
2019-01-11T13:00:31.581Z,3.19
2019-01-11T13:01:41.713Z,3.11
2019-01-11T13:02:51.823Z,3.16
2019-01-11T13:04:01.952Z,3.21
2019-01-11T13:05:12.079Z,3.18
2019-01-11T13:06:22.206Z,3.19
2019-01-11T13:07:32.319Z,3.11
2019-01-11T13:08:42.445Z,3.15
2019-01-11T13:09:52.569Z,3.16
2019-01-11T13:11:02.438Z,3.15
2019-01-11T13:12:12.578Z,3.04
2019-01-11T13:13:22.720Z,3.04
2019-01-11T13:14:32.597Z,3.1
2019-01-11T13:15:42.726Z,3.1
2019-01-11T13:16:52.838Z,3.11
2019-01-11T13:18:02.734Z,3.04
2019-01-11T13:19:12.868Z,3.1
2019-01-11T13:20:22.996Z,3.1
2019-01-11T13:21:33.111Z,3.11
2019-01-11T13:22:43.241Z,3.16
2019-01-11T13:23:53.369Z,3.24
2019-01-11T13:25:03.499Z,3.07
2019-01-11T13:26:13.361Z,3.18
2019-01-11T13:27:23.489Z,3.19
2019-01-11T13:28:33.608Z,3.25
2019-01-11T13:29:43.468Z,3.18
2019-01-11T13:30:53.610Z,3.16
2019-01-11T13:32:03.724Z,3.19
2019-01-11T13:33:13.839Z,3.1
2019-01-11T13:34:23.974Z,3.15
2019-01-11T13:35:34.121Z,3.13
2019-01-11T13:36:45.216Z,3.19
2019-01-11T13:38:00.972Z,3.19
2019-01-11T13:39:11.107Z,3.18
2019-01-11T13:40:21.240Z,3.13
2019-01-11T13:41:31.358Z,3.21
2019-01-11T13:42:41.473Z,3.25
2019-01-11T13:43:51.614Z,3.22
2019-01-11T13:45:01.747Z,3.25
2019-01-11T13:46:11.870Z,3.25
2019-01-11T13:47:21.986Z,3.21
2019-01-11T13:48:31.776Z,3.18
2019-01-11T13:49:41.926Z,3.19
2019-01-11T13:50:52.062Z,3.15
2019-01-11T13:52:07.087Z,3.18
2019-01-11T13:53:17.442Z,3.22
2019-01-11T13:54:27.586Z,3.24
2019-01-11T13:55:37.727Z,3.25
2019-01-11T13:56:47.593Z,3.24
2019-01-11T13:57:57.723Z,3.28
2019-01-11T13:59:07.857Z,3.26
2019-01-11T14:00:18.166Z,3.25
2019-01-11T14:01:28.304Z,3.26
2019-01-11T14:02:38.740Z,3.29
2019-01-11T14:03:49.172Z,3.29
2019-01-11T14:04:59.314Z,3.29
2019-01-11T14:06:09.472Z,3.31
2019-01-11T14:07:19.341Z,3.32
2019-01-11T14:08:29.486Z,3.26
2019-01-11T14:09:39.593Z,3.26
2019-01-11T14:10:49.708Z,3.34
2019-01-11T14:11:59.880Z,3.37
2019-01-11T14:13:10.026Z,3.37
2019-01-11T14:14:20.174Z,3.32
2019-01-11T14:15:30.311Z,3.42
2019-01-11T14:16:40.458Z,3.46
2019-01-11T14:17:50.782Z,3.39
2019-01-11T14:19:00.946Z,3.44
2019-01-11T14:20:11.430Z,3.43
2019-01-11T14:21:21.588Z,3.39
2019-01-11T14:22:31.784Z,3.36
2019-01-11T14:23:41.645Z,3.4
2019-01-11T14:24:51.785Z,3.4
2019-01-11T14:26:01.940Z,3.42
2019-01-11T14:27:11.805Z,3.42
2019-01-11T14:28:22.170Z,3.31
2019-01-11T14:29:32.319Z,3.43
2019-01-11T14:30:43.563Z,3.42
2019-01-11T14:31:53.890Z,3.42
2019-01-11T14:33:04.018Z,3.52
2019-01-11T14:34:14.153Z,3.54
2019-01-11T14:35:24.288Z,3.47
2019-01-11T14:36:34.614Z,3.58
2019-01-11T14:37:44.974Z,3.58
2019-01-11T14:38:55.306Z,3.58
2019-01-11T14:40:05.453Z,3.55
2019-01-11T14:41:15.593Z,3.59
2019-01-11T14:42:25.766Z,3.52
2019-01-11T14:43:35.643Z,3.58
2019-01-11T14:44:45.763Z,3.55
2019-01-11T14:45:55.889Z,3.64
2019-01-11T14:47:06.052Z,3.67
2019-01-11T14:48:15.930Z,3.67
2019-01-11T14:49:26.089Z,3.69
2019-01-11T14:50:36.251Z,3.64
2019-01-11T14:51:46.385Z,3.73
2019-01-11T14:52:56.290Z,3.69
2019-01-11T14:54:06.435Z,3.75
2019-01-11T14:55:16.617Z,3.73
2019-01-11T14:56:27.666Z,3.79
2019-01-11T14:57:37.841Z,3.68
2019-01-11T14:58:47.769Z,3.76
2019-01-11T14:59:57.953Z,3.77
2019-01-11T15:01:08.099Z,3.83
2019-01-11T15:02:18.293Z,3.79
2019-01-11T15:03:28.419Z,3.79
2019-01-11T15:04:38.600Z,3.83
2019-01-11T15:05:48.743Z,3.82
2019-01-11T15:06:58.906Z,3.87
2019-01-11T15:08:09.066Z,3.82
2019-01-11T15:09:19.272Z,3.9
2019-01-11T15:10:29.391Z,3.94
2019-01-11T15:11:39.560Z,3.85
2019-01-11T15:12:49.706Z,3.94
2019-01-11T15:13:59.854Z,3.97
2019-01-11T15:15:10.011Z,3.8
2019-01-11T15:16:20.176Z,3.97
2019-01-11T15:17:30.321Z,3.85
2019-01-11T15:18:40.438Z,3.87
2019-01-11T15:19:51.055Z,3.9
2019-01-11T15:21:01.231Z,3.91
2019-01-11T15:22:11.367Z,3.95
2019-01-11T15:23:21.256Z,3.9
2019-01-11T15:24:31.382Z,3.9
2019-01-11T15:25:41.540Z,3.93
2019-01-11T15:26:51.675Z,3.9
2019-01-11T15:28:01.840Z,3.91
2019-01-11T15:29:12.028Z,3.93
2019-01-11T15:30:22.373Z,3.98
2019-01-11T15:31:32.557Z,3.87
2019-01-11T15:32:42.720Z,3.95